sensor_id;sensor_type;location;lat;lon;timestamp;P1;durP1;ratioP1;P2;durP2;ratioP2
38117;SDS011;23928;47.562;7.508;2022-11-28T00:01:07;19.00;;;9.40;;
38117;SDS011;23928;47.562;7.508;2022-11-28T00:03:38;14.80;;;9.23;;
38117;SDS011;23928;47.562;7.508;2022-11-28T00:06:04;14.60;;;9.10;;
38117;SDS011;23928;47.562;7.508;2022-11-28T00:08:31;14.97;;;9.30;;
38117;SDS011;23928;47.562;7.508;2022-11-28T00:10:58;15.27;;;9.43;;
38117;SDS011;23928;47.562;7.508;2022-11-28T00:13:27;13.77;;;8.83;;
38117;SDS011;23928;47.562;7.508;2022-11-28T00:15:59;16.67;;;9.30;;
38117;SDS011;23928;47.562;7.508;2022-11-28T00:18:26;16.90;;;9.63;;
38117;SDS011;23928;47.562;7.508;2022-11-28T00:20:58;13.40;;;8.67;;
38117;SDS011;23928;47.562;7.508;2022-11-28T00:23:31;13.43;;;8.53;;
38117;SDS011;23928;47.562;7.508;2022-11-28T00:26:01;15.47;;;9.37;;
38117;SDS011;23928;47.562;7.508;2022-11-28T00:28:32;18.10;;;9.87;;
38117;SDS011;23928;47.562;7.508;2022-11-28T00:30:58;13.90;;;9.03;;
38117;SDS011;23928;47.562;7.508;2022-11-28T00:33:24;13.47;;;8.90;;
38117;SDS011;23928;47.562;7.508;2022-11-28T00:35:49;15.30;;;8.50;;
38117;SDS011;23928;47.562;7.508;2022-11-28T00:38:15;15.07;;;8.97;;
38117;SDS011;23928;47.562;7.508;2022-11-28T00:40:41;14.17;;;9.33;;
38117;SDS011;23928;47.562;7.508;2022-11-28T00:43:06;15.33;;;8.93;;
38117;SDS011;23928;47.562;7.508;2022-11-28T00:45:32;12.57;;;8.50;;
38117;SDS011;23928;47.562;7.508;2022-11-28T00:47:58;16.97;;;9.60;;
38117;SDS011;23928;47.562;7.508;2022-11-28T00:50:23;13.80;;;8.53;;
38117;SDS011;23928;47.562;7.508;2022-11-28T00:52:49;12.63;;;8.07;;
38117;SDS011;23928;47.562;7.508;2022-11-28T00:55:15;17.03;;;8.50;;
38117;SDS011;23928;47.562;7.508;2022-11-28T00:57:40;14.00;;;8.77;;
38117;SDS011;23928;47.562;7.508;2022-11-28T01:00:06;13.93;;;9.17;;
38117;SDS011;23928;47.562;7.508;2022-11-28T01:02:33;12.83;;;8.70;;
38117;SDS011;23928;47.562;7.508;2022-11-28T01:04:59;13.53;;;8.60;;
38117;SDS011;23928;47.562;7.508;2022-11-28T01:07:25;15.00;;;8.67;;
38117;SDS011;23928;47.562;7.508;2022-11-28T01:09:53;12.60;;;8.63;;
38117;SDS011;23928;47.562;7.508;2022-11-28T01:12:20;12.97;;;8.50;;
38117;SDS011;23928;47.562;7.508;2022-11-28T01:14:46;12.27;;;8.50;;
38117;SDS011;23928;47.562;7.508;2022-11-28T01:17:11;13.07;;;8.90;;
38117;SDS011;23928;47.562;7.508;2022-11-28T01:19:37;11.13;;;8.00;;
38117;SDS011;23928;47.562;7.508;2022-11-28T01:22:02;16.57;;;8.93;;
38117;SDS011;23928;47.562;7.508;2022-11-28T01:24:33;13.57;;;9.67;;
38117;SDS011;23928;47.562;7.508;2022-11-28T01:26:58;15.60;;;9.00;;
38117;SDS011;23928;47.562;7.508;2022-11-28T01:29:24;15.03;;;8.67;;
38117;SDS011;23928;47.562;7.508;2022-11-28T01:31:49;18.93;;;9.53;;
38117;SDS011;23928;47.562;7.508;2022-11-28T01:34:15;17.73;;;10.53;;
38117;SDS011;23928;47.562;7.508;2022-11-28T01:36:42;20.10;;;11.77;;
38117;SDS011;23928;47.562;7.508;2022-11-28T01:39:07;21.43;;;10.70;;
38117;SDS011;23928;47.562;7.508;2022-11-28T01:41:33;16.80;;;10.10;;
38117;SDS011;23928;47.562;7.508;2022-11-28T01:44:00;20.27;;;11.20;;
38117;SDS011;23928;47.562;7.508;2022-11-28T01:46:35;21.80;;;9.93;;
38117;SDS011;23928;47.562;7.508;2022-11-28T01:49:12;22.83;;;11.83;;
38117;SDS011;23928;47.562;7.508;2022-11-28T01:51:44;19.13;;;11.23;;
38117;SDS011;23928;47.562;7.508;2022-11-28T01:54:17;24.53;;;11.53;;
38117;SDS011;23928;47.562;7.508;2022-11-28T01:56:48;18.07;;;10.77;;
38117;SDS011;23928;47.562;7.508;2022-11-28T01:59:17;20.77;;;10.77;;
38117;SDS011;23928;47.562;7.508;2022-11-28T02:01:44;18.33;;;10.37;;
38117;SDS011;23928;47.562;7.508;2022-11-28T02:04:10;21.30;;;10.27;;
38117;SDS011;23928;47.562;7.508;2022-11-28T02:06:38;19.53;;;9.77;;
38117;SDS011;23928;47.562;7.508;2022-11-28T02:09:05;18.83;;;10.47;;
38117;SDS011;23928;47.562;7.508;2022-11-28T02:11:55;19.73;;;10.93;;
38117;SDS011;23928;47.562;7.508;2022-11-28T02:14:46;20.20;;;11.67;;
38117;SDS011;23928;47.562;7.508;2022-11-28T02:23:09;23.03;;;10.07;;
38117;SDS011;23928;47.562;7.508;2022-11-28T02:28:50;19.97;;;11.27;;
38117;SDS011;23928;47.562;7.508;2022-11-28T02:31:52;18.53;;;9.80;;
38117;SDS011;23928;47.562;7.508;2022-11-28T02:34:25;16.63;;;8.93;;
38117;SDS011;23928;47.562;7.508;2022-11-28T02:37:01;18.20;;;9.53;;
38117;SDS011;23928;47.562;7.508;2022-11-28T02:45:33;17.40;;;10.20;;
38117;SDS011;23928;47.562;7.508;2022-11-28T02:48:12;18.73;;;10.07;;
38117;SDS011;23928;47.562;7.508;2022-11-28T02:50:52;17.10;;;10.10;;
38117;SDS011;23928;47.562;7.508;2022-11-28T02:53:24;19.40;;;10.83;;
38117;SDS011;23928;47.562;7.508;2022-11-28T02:55:54;20.13;;;9.87;;
38117;SDS011;23928;47.562;7.508;2022-11-28T02:58:21;19.97;;;10.07;;
38117;SDS011;23928;47.562;7.508;2022-11-28T03:00:47;15.87;;;8.47;;
38117;SDS011;23928;47.562;7.508;2022-11-28T03:11:34;14.67;;;8.50;;
38117;SDS011;23928;47.562;7.508;2022-11-28T03:19:43;14.83;;;8.73;;
38117;SDS011;23928;47.562;7.508;2022-11-28T03:28:11;14.00;;;8.57;;
38117;SDS011;23928;47.562;7.508;2022-11-28T03:30:52;12.10;;;8.20;;
38117;SDS011;23928;47.562;7.508;2022-11-28T03:33:26;13.87;;;8.80;;
38117;SDS011;23928;47.562;7.508;2022-11-28T03:35:57;14.53;;;8.40;;
38117;SDS011;23928;47.562;7.508;2022-11-28T03:38:29;15.00;;;9.67;;
38117;SDS011;23928;47.562;7.508;2022-11-28T03:41:06;14.90;;;8.30;;
38117;SDS011;23928;47.562;7.508;2022-11-28T03:43:42;14.03;;;9.07;;
38117;SDS011;23928;47.562;7.508;2022-11-28T03:46:16;12.37;;;8.13;;
38117;SDS011;23928;47.562;7.508;2022-11-28T03:48:46;12.07;;;8.23;;
38117;SDS011;23928;47.562;7.508;2022-11-28T03:51:19;12.90;;;8.00;;
38117;SDS011;23928;47.562;7.508;2022-11-28T03:56:35;16.03;;;9.83;;
38117;SDS011;23928;47.562;7.508;2022-11-28T03:59:13;16.97;;;9.67;;
38117;SDS011;23928;47.562;7.508;2022-11-28T04:07:27;14.93;;;9.03;;
38117;SDS011;23928;47.562;7.508;2022-11-28T04:23:29;15.10;;;10.30;;
38117;SDS011;23928;47.562;7.508;2022-11-28T04:25:59;14.90;;;9.90;;
38117;SDS011;23928;47.562;7.508;2022-11-28T04:28:29;17.57;;;9.33;;
38117;SDS011;23928;47.562;7.508;2022-11-28T04:30:57;15.53;;;9.90;;
38117;SDS011;23928;47.562;7.508;2022-11-28T04:33:26;14.93;;;9.60;;
38117;SDS011;23928;47.562;7.508;2022-11-28T04:35:55;14.53;;;8.93;;
38117;SDS011;23928;47.562;7.508;2022-11-28T04:38:22;16.03;;;9.50;;
38117;SDS011;23928;47.562;7.508;2022-11-28T04:40:52;18.00;;;9.47;;
38117;SDS011;23928;47.562;7.508;2022-11-28T04:43:27;12.37;;;8.73;;
38117;SDS011;23928;47.562;7.508;2022-11-28T04:46:03;16.03;;;9.13;;
38117;SDS011;23928;47.562;7.508;2022-11-28T04:48:33;18.63;;;10.07;;
38117;SDS011;23928;47.562;7.508;2022-11-28T04:51:02;15.37;;;9.50;;
38117;SDS011;23928;47.562;7.508;2022-11-28T04:53:31;18.57;;;9.60;;
38117;SDS011;23928;47.562;7.508;2022-11-28T04:56:04;16.20;;;9.97;;
38117;SDS011;23928;47.562;7.508;2022-11-28T04:58:35;15.57;;;10.30;;
38117;SDS011;23928;47.562;7.508;2022-11-28T05:01:06;14.47;;;9.60;;
38117;SDS011;23928;47.562;7.508;2022-11-28T05:03:35;16.23;;;9.67;;
38117;SDS011;23928;47.562;7.508;2022-11-28T05:06:02;14.83;;;9.17;;
38117;SDS011;23928;47.562;7.508;2022-11-28T05:08:28;17.13;;;9.70;;
38117;SDS011;23928;47.562;7.508;2022-11-28T05:10:53;13.37;;;9.43;;
38117;SDS011;23928;47.562;7.508;2022-11-28T05:13:19;14.10;;;9.20;;
38117;SDS011;23928;47.562;7.508;2022-11-28T05:15:44;18.97;;;11.73;;
38117;SDS011;23928;47.562;7.508;2022-11-28T05:18:10;19.33;;;11.80;;
38117;SDS011;23928;47.562;7.508;2022-11-28T05:20:36;21.47;;;11.23;;
38117;SDS011;23928;47.562;7.508;2022-11-28T05:23:02;16.47;;;10.80;;
38117;SDS011;23928;47.562;7.508;2022-11-28T05:25:28;16.17;;;9.80;;
38117;SDS011;23928;47.562;7.508;2022-11-28T05:27:54;16.17;;;9.90;;
38117;SDS011;23928;47.562;7.508;2022-11-28T05:30:19;15.87;;;10.50;;
38117;SDS011;23928;47.562;7.508;2022-11-28T05:32:45;17.07;;;10.87;;
38117;SDS011;23928;47.562;7.508;2022-11-28T05:35:11;16.63;;;10.50;;
38117;SDS011;23928;47.562;7.508;2022-11-28T05:37:36;16.67;;;10.23;;
38117;SDS011;23928;47.562;7.508;2022-11-28T05:40:02;17.07;;;10.27;;
38117;SDS011;23928;47.562;7.508;2022-11-28T05:42:34;18.10;;;10.60;;
38117;SDS011;23928;47.562;7.508;2022-11-28T05:45:00;20.37;;;11.97;;
38117;SDS011;23928;47.562;7.508;2022-11-28T05:47:30;18.00;;;11.80;;
38117;SDS011;23928;47.562;7.508;2022-11-28T05:49:57;18.57;;;11.90;;
38117;SDS011;23928;47.562;7.508;2022-11-28T05:52:23;20.63;;;11.50;;
38117;SDS011;23928;47.562;7.508;2022-11-28T05:54:48;15.70;;;10.83;;
38117;SDS011;23928;47.562;7.508;2022-11-28T05:57:14;19.53;;;11.03;;
38117;SDS011;23928;47.562;7.508;2022-11-28T05:59:40;18.17;;;10.67;;
38117;SDS011;23928;47.562;7.508;2022-11-28T06:02:05;17.03;;;10.53;;
38117;SDS011;23928;47.562;7.508;2022-11-28T06:04:31;18.33;;;10.87;;
38117;SDS011;23928;47.562;7.508;2022-11-28T06:06:57;16.37;;;10.03;;
38117;SDS011;23928;47.562;7.508;2022-11-28T06:09:23;13.77;;;10.27;;
38117;SDS011;23928;47.562;7.508;2022-11-28T06:11:48;16.53;;;10.87;;
38117;SDS011;23928;47.562;7.508;2022-11-28T06:14:14;15.07;;;9.30;;
38117;SDS011;23928;47.562;7.508;2022-11-28T06:16:39;16.27;;;10.37;;
38117;SDS011;23928;47.562;7.508;2022-11-28T06:19:06;16.83;;;10.17;;
38117;SDS011;23928;47.562;7.508;2022-11-28T06:21:32;17.23;;;11.40;;
38117;SDS011;23928;47.562;7.508;2022-11-28T06:23:58;17.07;;;10.73;;
38117;SDS011;23928;47.562;7.508;2022-11-28T06:26:24;16.10;;;10.50;;
38117;SDS011;23928;47.562;7.508;2022-11-28T06:28:51;13.90;;;9.30;;
38117;SDS011;23928;47.562;7.508;2022-11-28T06:31:18;15.80;;;10.00;;
38117;SDS011;23928;47.562;7.508;2022-11-28T06:33:45;15.57;;;10.50;;
38117;SDS011;23928;47.562;7.508;2022-11-28T06:36:11;13.83;;;9.57;;
38117;SDS011;23928;47.562;7.508;2022-11-28T06:38:37;15.93;;;9.73;;
38117;SDS011;23928;47.562;7.508;2022-11-28T06:41:05;18.40;;;10.27;;
38117;SDS011;23928;47.562;7.508;2022-11-28T06:43:33;18.33;;;10.63;;
38117;SDS011;23928;47.562;7.508;2022-11-28T06:45:59;16.73;;;10.10;;
38117;SDS011;23928;47.562;7.508;2022-11-28T06:48:25;19.93;;;11.33;;
38117;SDS011;23928;47.562;7.508;2022-11-28T06:50:51;15.53;;;10.10;;
38117;SDS011;23928;47.562;7.508;2022-11-28T06:53:17;17.10;;;10.80;;
38117;SDS011;23928;47.562;7.508;2022-11-28T06:55:43;17.70;;;10.73;;
38117;SDS011;23928;47.562;7.508;2022-11-28T06:58:09;20.03;;;10.77;;
38117;SDS011;23928;47.562;7.508;2022-11-28T07:00:34;17.87;;;10.20;;
38117;SDS011;23928;47.562;7.508;2022-11-28T07:03:01;17.77;;;10.63;;
38117;SDS011;23928;47.562;7.508;2022-11-28T07:05:26;14.70;;;9.70;;
38117;SDS011;23928;47.562;7.508;2022-11-28T07:07:53;16.83;;;10.27;;
38117;SDS011;23928;47.562;7.508;2022-11-28T07:10:18;15.80;;;10.07;;
38117;SDS011;23928;47.562;7.508;2022-11-28T07:12:45;14.40;;;9.40;;
38117;SDS011;23928;47.562;7.508;2022-11-28T07:15:10;13.60;;;9.10;;
38117;SDS011;23928;47.562;7.508;2022-11-28T07:17:36;17.43;;;10.10;;
38117;SDS011;23928;47.562;7.508;2022-11-28T07:20:02;11.93;;;8.40;;
38117;SDS011;23928;47.562;7.508;2022-11-28T07:22:29;15.40;;;9.60;;
38117;SDS011;23928;47.562;7.508;2022-11-28T07:24:55;16.70;;;10.40;;
38117;SDS011;23928;47.562;7.508;2022-11-28T07:27:20;12.83;;;9.27;;
38117;SDS011;23928;47.562;7.508;2022-11-28T07:29:46;16.13;;;10.70;;
38117;SDS011;23928;47.562;7.508;2022-11-28T07:32:12;19.53;;;10.80;;
38117;SDS011;23928;47.562;7.508;2022-11-28T07:34:37;18.70;;;10.63;;
38117;SDS011;23928;47.562;7.508;2022-11-28T07:37:05;22.97;;;15.53;;
38117;SDS011;23928;47.562;7.508;2022-11-28T07:39:31;17.27;;;11.83;;
38117;SDS011;23928;47.562;7.508;2022-11-28T07:41:56;13.00;;;8.83;;
38117;SDS011;23928;47.562;7.508;2022-11-28T07:44:22;15.63;;;10.67;;
38117;SDS011;23928;47.562;7.508;2022-11-28T07:46:48;16.70;;;10.23;;
38117;SDS011;23928;47.562;7.508;2022-11-28T07:49:13;21.57;;;13.90;;
38117;SDS011;23928;47.562;7.508;2022-11-28T07:51:40;25.53;;;17.93;;
38117;SDS011;23928;47.562;7.508;2022-11-28T07:54:06;22.83;;;15.77;;
38117;SDS011;23928;47.562;7.508;2022-11-28T07:56:36;25.50;;;16.63;;
38117;SDS011;23928;47.562;7.508;2022-11-28T07:59:02;27.60;;;18.63;;
38117;SDS011;23928;47.562;7.508;2022-11-28T08:01:29;22.97;;;14.20;;
38117;SDS011;23928;47.562;7.508;2022-11-28T08:03:57;23.93;;;14.47;;
38117;SDS011;23928;47.562;7.508;2022-11-28T08:06:25;19.37;;;12.33;;
38117;SDS011;23928;47.562;7.508;2022-11-28T08:08:52;19.67;;;12.00;;
38117;SDS011;23928;47.562;7.508;2022-11-28T08:11:20;19.67;;;12.70;;
38117;SDS011;23928;47.562;7.508;2022-11-28T08:13:47;20.90;;;13.73;;
38117;SDS011;23928;47.562;7.508;2022-11-28T08:16:14;18.10;;;12.10;;
38117;SDS011;23928;47.562;7.508;2022-11-28T08:18:46;20.47;;;13.47;;
38117;SDS011;23928;47.562;7.508;2022-11-28T08:21:16;20.97;;;12.70;;
38117;SDS011;23928;47.562;7.508;2022-11-28T08:23:50;19.50;;;12.13;;
38117;SDS011;23928;47.562;7.508;2022-11-28T08:26:18;18.00;;;11.00;;
38117;SDS011;23928;47.562;7.508;2022-11-28T08:28:45;20.70;;;12.30;;
38117;SDS011;23928;47.562;7.508;2022-11-28T08:31:13;27.40;;;16.53;;
38117;SDS011;23928;47.562;7.508;2022-11-28T08:33:40;35.93;;;23.03;;
38117;SDS011;23928;47.562;7.508;2022-11-28T08:36:07;25.60;;;16.47;;
38117;SDS011;23928;47.562;7.508;2022-11-28T08:38:34;22.30;;;12.23;;
38117;SDS011;23928;47.562;7.508;2022-11-28T08:41:04;17.60;;;10.97;;
38117;SDS011;23928;47.562;7.508;2022-11-28T08:43:34;23.00;;;12.37;;
38117;SDS011;23928;47.562;7.508;2022-11-28T08:46:01;20.43;;;12.40;;
38117;SDS011;23928;47.562;7.508;2022-11-28T08:48:28;23.20;;;14.93;;
38117;SDS011;23928;47.562;7.508;2022-11-28T08:50:54;24.97;;;17.07;;
38117;SDS011;23928;47.562;7.508;2022-11-28T08:53:21;21.23;;;11.93;;
38117;SDS011;23928;47.562;7.508;2022-11-28T08:55:47;15.73;;;10.80;;
38117;SDS011;23928;47.562;7.508;2022-11-28T08:58:13;19.57;;;12.20;;
38117;SDS011;23928;47.562;7.508;2022-11-28T09:00:39;20.60;;;11.90;;
38117;SDS011;23928;47.562;7.508;2022-11-28T09:03:06;19.30;;;11.30;;
38117;SDS011;23928;47.562;7.508;2022-11-28T09:05:32;20.40;;;10.97;;
38117;SDS011;23928;47.562;7.508;2022-11-28T09:07:58;16.93;;;11.17;;
38117;SDS011;23928;47.562;7.508;2022-11-28T09:10:24;16.43;;;10.60;;
38117;SDS011;23928;47.562;7.508;2022-11-28T09:12:50;16.93;;;10.63;;
38117;SDS011;23928;47.562;7.508;2022-11-28T09:15:16;17.40;;;11.03;;
38117;SDS011;23928;47.562;7.508;2022-11-28T09:17:43;15.77;;;11.67;;
38117;SDS011;23928;47.562;7.508;2022-11-28T09:20:11;15.57;;;10.47;;
38117;SDS011;23928;47.562;7.508;2022-11-28T09:22:37;16.03;;;10.30;;
38117;SDS011;23928;47.562;7.508;2022-11-28T09:25:03;16.53;;;11.10;;
38117;SDS011;23928;47.562;7.508;2022-11-28T09:27:29;18.80;;;11.87;;
38117;SDS011;23928;47.562;7.508;2022-11-28T09:29:54;17.23;;;11.30;;
38117;SDS011;23928;47.562;7.508;2022-11-28T09:32:20;19.43;;;12.17;;
38117;SDS011;23928;47.562;7.508;2022-11-28T09:34:45;16.53;;;10.23;;
38117;SDS011;23928;47.562;7.508;2022-11-28T09:37:11;15.93;;;10.77;;
38117;SDS011;23928;47.562;7.508;2022-11-28T09:39:37;19.07;;;11.80;;
38117;SDS011;23928;47.562;7.508;2022-11-28T09:42:05;18.40;;;12.20;;
38117;SDS011;23928;47.562;7.508;2022-11-28T09:44:47;33.07;;;20.90;;
38117;SDS011;23928;47.562;7.508;2022-11-28T09:47:21;17.90;;;12.30;;
38117;SDS011;23928;47.562;7.508;2022-11-28T09:49:51;17.10;;;10.80;;
38117;SDS011;23928;47.562;7.508;2022-11-28T09:57:33;21.40;;;12.07;;
38117;SDS011;23928;47.562;7.508;2022-11-28T10:00:04;20.50;;;12.67;;
38117;SDS011;23928;47.562;7.508;2022-11-28T10:02:37;21.27;;;12.97;;
38117;SDS011;23928;47.562;7.508;2022-11-28T10:13:09;21.33;;;13.30;;
38117;SDS011;23928;47.562;7.508;2022-11-28T10:18:51;22.27;;;13.63;;
38117;SDS011;23928;47.562;7.508;2022-11-28T10:24:10;23.23;;;13.43;;
38117;SDS011;23928;47.562;7.508;2022-11-28T10:26:42;22.97;;;13.23;;
38117;SDS011;23928;47.562;7.508;2022-11-28T10:32:04;22.90;;;14.40;;
38117;SDS011;23928;47.562;7.508;2022-11-28T10:34:44;21.73;;;13.50;;
38117;SDS011;23928;47.562;7.508;2022-11-28T10:37:20;21.57;;;13.00;;
38117;SDS011;23928;47.562;7.508;2022-11-28T10:39:49;20.43;;;13.73;;
38117;SDS011;23928;47.562;7.508;2022-11-28T10:45:09;19.30;;;12.93;;
38117;SDS011;23928;47.562;7.508;2022-11-28T10:48:11;22.63;;;12.90;;
38117;SDS011;23928;47.562;7.508;2022-11-28T11:01:15;22.63;;;15.07;;
38117;SDS011;23928;47.562;7.508;2022-11-28T11:03:41;20.80;;;12.10;;
38117;SDS011;23928;47.562;7.508;2022-11-28T11:06:07;16.77;;;11.50;;
38117;SDS011;23928;47.562;7.508;2022-11-28T11:08:34;19.07;;;11.50;;
38117;SDS011;23928;47.562;7.508;2022-11-28T11:14:02;21.83;;;14.27;;
38117;SDS011;23928;47.562;7.508;2022-11-28T11:16:46;24.00;;;14.23;;
38117;SDS011;23928;47.562;7.508;2022-11-28T11:19:25;16.50;;;10.97;;
38117;SDS011;23928;47.562;7.508;2022-11-28T11:24:36;27.00;;;18.07;;
38117;SDS011;23928;47.562;7.508;2022-11-28T11:27:03;21.30;;;11.93;;
38117;SDS011;23928;47.562;7.508;2022-11-28T11:29:31;18.30;;;11.93;;
38117;SDS011;23928;47.562;7.508;2022-11-28T11:31:59;16.47;;;11.43;;
38117;SDS011;23928;47.562;7.508;2022-11-28T11:34:31;22.83;;;11.20;;
38117;SDS011;23928;47.562;7.508;2022-11-28T11:37:17;26.83;;;17.93;;
38117;SDS011;23928;47.562;7.508;2022-11-28T11:39:52;23.47;;;15.23;;
38117;SDS011;23928;47.562;7.508;2022-11-28T11:42:22;21.00;;;13.57;;
38117;SDS011;23928;47.562;7.508;2022-11-28T11:44:50;19.73;;;11.93;;
38117;SDS011;23928;47.562;7.508;2022-11-28T11:47:17;19.17;;;11.90;;
38117;SDS011;23928;47.562;7.508;2022-11-28T11:49:44;16.37;;;11.47;;
38117;SDS011;23928;47.562;7.508;2022-11-28T11:54:40;23.27;;;17.13;;
38117;SDS011;23928;47.562;7.508;2022-11-28T11:57:37;18.30;;;12.37;;
38117;SDS011;23928;47.562;7.508;2022-11-28T12:10:24;19.00;;;12.47;;
38117;SDS011;23928;47.562;7.508;2022-11-28T12:12:53;19.60;;;11.70;;
38117;SDS011;23928;47.562;7.508;2022-11-28T12:15:43;21.90;;;13.50;;
38117;SDS011;23928;47.562;7.508;2022-11-28T12:18:09;27.83;;;15.23;;
38117;SDS011;23928;47.562;7.508;2022-11-28T12:29:05;18.90;;;10.77;;
38117;SDS011;23928;47.562;7.508;2022-11-28T12:50:43;15.87;;;9.10;;
38117;SDS011;23928;47.562;7.508;2022-11-28T12:58:26;16.40;;;10.03;;
38117;SDS011;23928;47.562;7.508;2022-11-28T13:09:17;14.17;;;9.40;;
38117;SDS011;23928;47.562;7.508;2022-11-28T13:14:59;14.63;;;9.90;;
38117;SDS011;23928;47.562;7.508;2022-11-28T13:17:37;17.73;;;10.73;;
38117;SDS011;23928;47.562;7.508;2022-11-28T13:20:15;14.63;;;10.63;;
38117;SDS011;23928;47.562;7.508;2022-11-28T13:25:37;19.37;;;13.10;;
38117;SDS011;23928;47.562;7.508;2022-11-28T13:28:41;17.80;;;11.83;;
38117;SDS011;23928;47.562;7.508;2022-11-28T13:33:51;17.90;;;12.80;;
38117;SDS011;23928;47.562;7.508;2022-11-28T13:36:30;19.23;;;12.90;;
38117;SDS011;23928;47.562;7.508;2022-11-28T13:38:59;16.47;;;11.80;;
38117;SDS011;23928;47.562;7.508;2022-11-28T13:42:12;18.27;;;11.97;;
38117;SDS011;23928;47.562;7.508;2022-11-28T13:49:47;17.07;;;12.10;;
38117;SDS011;23928;47.562;7.508;2022-11-28T13:59:55;21.67;;;13.73;;
38117;SDS011;23928;47.562;7.508;2022-11-28T14:05:03;19.03;;;11.90;;
38117;SDS011;23928;47.562;7.508;2022-11-28T14:07:38;16.27;;;10.73;;
38117;SDS011;23928;47.562;7.508;2022-11-28T14:15:49;19.90;;;11.90;;
38117;SDS011;23928;47.562;7.508;2022-11-28T14:24:14;19.07;;;13.63;;
38117;SDS011;23928;47.562;7.508;2022-11-28T14:26:44;15.73;;;11.30;;
38117;SDS011;23928;47.562;7.508;2022-11-28T14:29:18;16.17;;;10.73;;
38117;SDS011;23928;47.562;7.508;2022-11-28T14:31:47;17.17;;;11.37;;
38117;SDS011;23928;47.562;7.508;2022-11-28T14:39:49;17.10;;;10.03;;
38117;SDS011;23928;47.562;7.508;2022-11-28T14:44:45;16.57;;;10.57;;
38117;SDS011;23928;47.562;7.508;2022-11-28T14:52:42;12.50;;;8.63;;
38117;SDS011;23928;47.562;7.508;2022-11-28T15:00:31;11.57;;;8.40;;
38117;SDS011;23928;47.562;7.508;2022-11-28T15:03:23;12.67;;;8.03;;
38117;SDS011;23928;47.562;7.508;2022-11-28T15:06:12;12.90;;;8.77;;
38117;SDS011;23928;47.562;7.508;2022-11-28T15:11:39;11.77;;;6.90;;
38117;SDS011;23928;47.562;7.508;2022-11-28T15:14:26;12.07;;;8.00;;
38117;SDS011;23928;47.562;7.508;2022-11-28T15:16:55;11.40;;;8.13;;
38117;SDS011;23928;47.562;7.508;2022-11-28T15:19:26;12.63;;;9.60;;
38117;SDS011;23928;47.562;7.508;2022-11-28T15:22:03;10.47;;;8.23;;
38117;SDS011;23928;47.562;7.508;2022-11-28T15:24:30;11.93;;;9.53;;
38117;SDS011;23928;47.562;7.508;2022-11-28T15:29:32;12.10;;;8.77;;
38117;SDS011;23928;47.562;7.508;2022-11-28T15:31:58;13.43;;;9.10;;
38117;SDS011;23928;47.562;7.508;2022-11-28T15:36:56;18.87;;;10.33;;
38117;SDS011;23928;47.562;7.508;2022-11-28T15:39:26;12.30;;;7.00;;
38117;SDS011;23928;47.562;7.508;2022-11-28T15:41:55;11.57;;;7.70;;
38117;SDS011;23928;47.562;7.508;2022-11-28T15:44:22;12.07;;;6.63;;
38117;SDS011;23928;47.562;7.508;2022-11-28T15:46:48;9.90;;;7.70;;
38117;SDS011;23928;47.562;7.508;2022-11-28T15:49:28;14.07;;;8.60;;
38117;SDS011;23928;47.562;7.508;2022-11-28T15:51:59;14.23;;;9.43;;
38117;SDS011;23928;47.562;7.508;2022-11-28T15:57:03;14.80;;;9.70;;
38117;SDS011;23928;47.562;7.508;2022-11-28T15:59:30;12.63;;;8.63;;
38117;SDS011;23928;47.562;7.508;2022-11-28T16:01:57;15.10;;;9.17;;
38117;SDS011;23928;47.562;7.508;2022-11-28T16:04:26;12.60;;;8.97;;
38117;SDS011;23928;47.562;7.508;2022-11-28T16:06:54;13.43;;;8.33;;
38117;SDS011;23928;47.562;7.508;2022-11-28T16:11:52;8.97;;;6.13;;
38117;SDS011;23928;47.562;7.508;2022-11-28T16:14:26;7.27;;;4.47;;
38117;SDS011;23928;47.562;7.508;2022-11-28T16:16:54;1.53;;;1.27;;
38117;SDS011;23928;47.562;7.508;2022-11-28T16:19:22;2.90;;;2.40;;
38117;SDS011;23928;47.562;7.508;2022-11-28T16:21:57;2.13;;;1.70;;
38117;SDS011;23928;47.562;7.508;2022-11-28T16:24:27;1.60;;;1.50;;
38117;SDS011;23928;47.562;7.508;2022-11-28T16:27:01;1.50;;;1.17;;
38117;SDS011;23928;47.562;7.508;2022-11-28T16:29:30;0.90;;;0.70;;
38117;SDS011;23928;47.562;7.508;2022-11-28T16:32:57;0.87;;;0.87;;
38117;SDS011;23928;47.562;7.508;2022-11-28T16:35:04;1.47;;;0.80;;
38117;SDS011;23928;47.562;7.508;2022-11-28T16:37:35;0.87;;;0.70;;
38117;SDS011;23928;47.562;7.508;2022-11-28T16:42:41;1.33;;;0.57;;
38117;SDS011;23928;47.562;7.508;2022-11-28T16:45:14;1.20;;;0.97;;
38117;SDS011;23928;47.562;7.508;2022-11-28T16:47:41;1.37;;;1.10;;
38117;SDS011;23928;47.562;7.508;2022-11-28T16:50:21;0.67;;;0.60;;
38117;SDS011;23928;47.562;7.508;2022-11-28T16:52:56;1.23;;;0.97;;
38117;SDS011;23928;47.562;7.508;2022-11-28T16:58:01;1.40;;;1.00;;
38117;SDS011;23928;47.562;7.508;2022-11-28T17:00:34;1.47;;;1.17;;
38117;SDS011;23928;47.562;7.508;2022-11-28T17:03:01;0.93;;;0.83;;
38117;SDS011;23928;47.562;7.508;2022-11-28T17:05:27;1.83;;;1.43;;
38117;SDS011;23928;47.562;7.508;2022-11-28T17:07:53;1.23;;;1.00;;
38117;SDS011;23928;47.562;7.508;2022-11-28T17:10:19;1.13;;;1.03;;
38117;SDS011;23928;47.562;7.508;2022-11-28T17:12:45;1.80;;;1.33;;
38117;SDS011;23928;47.562;7.508;2022-11-28T17:15:15;2.07;;;1.13;;
38117;SDS011;23928;47.562;7.508;2022-11-28T17:17:42;1.30;;;1.20;;
38117;SDS011;23928;47.562;7.508;2022-11-28T17:20:08;1.60;;;1.20;;
38117;SDS011;23928;47.562;7.508;2022-11-28T17:22:37;4.63;;;1.50;;
38117;SDS011;23928;47.562;7.508;2022-11-28T17:25:14;1.90;;;1.30;;
38117;SDS011;23928;47.562;7.508;2022-11-28T17:27:41;2.67;;;1.50;;
38117;SDS011;23928;47.562;7.508;2022-11-28T17:30:11;1.60;;;1.50;;
38117;SDS011;23928;47.562;7.508;2022-11-28T17:32:42;1.60;;;1.40;;
38117;SDS011;23928;47.562;7.508;2022-11-28T17:35:11;2.13;;;1.60;;
38117;SDS011;23928;47.562;7.508;2022-11-28T17:37:40;1.30;;;1.17;;
38117;SDS011;23928;47.562;7.508;2022-11-28T17:40:06;2.00;;;1.00;;
38117;SDS011;23928;47.562;7.508;2022-11-28T17:42:51;1.47;;;1.30;;
38117;SDS011;23928;47.562;7.508;2022-11-28T17:45:16;1.20;;;1.10;;
38117;SDS011;23928;47.562;7.508;2022-11-28T17:47:44;1.57;;;1.10;;
38117;SDS011;23928;47.562;7.508;2022-11-28T17:50:09;1.20;;;0.90;;
38117;SDS011;23928;47.562;7.508;2022-11-28T17:52:35;2.50;;;1.10;;
38117;SDS011;23928;47.562;7.508;2022-11-28T17:55:00;1.83;;;1.40;;
38117;SDS011;23928;47.562;7.508;2022-11-28T17:57:28;2.17;;;1.03;;
38117;SDS011;23928;47.562;7.508;2022-11-28T17:59:55;2.13;;;1.30;;
38117;SDS011;23928;47.562;7.508;2022-11-28T18:02:20;1.30;;;1.10;;
38117;SDS011;23928;47.562;7.508;2022-11-28T18:04:46;2.10;;;1.07;;
38117;SDS011;23928;47.562;7.508;2022-11-28T18:07:12;1.83;;;1.23;;
38117;SDS011;23928;47.562;7.508;2022-11-28T18:09:37;0.80;;;0.80;;
38117;SDS011;23928;47.562;7.508;2022-11-28T18:12:03;1.93;;;0.83;;
38117;SDS011;23928;47.562;7.508;2022-11-28T18:14:29;3.47;;;0.80;;
38117;SDS011;23928;47.562;7.508;2022-11-28T18:16:54;1.00;;;0.80;;
38117;SDS011;23928;47.562;7.508;2022-11-28T18:19:20;1.83;;;1.10;;
38117;SDS011;23928;47.562;7.508;2022-11-28T18:21:46;8.73;;;5.27;;
38117;SDS011;23928;47.562;7.508;2022-11-28T18:24:11;10.10;;;5.90;;
38117;SDS011;23928;47.562;7.508;2022-11-28T18:26:37;5.20;;;3.33;;
38117;SDS011;23928;47.562;7.508;2022-11-28T18:29:03;3.50;;;2.33;;